地図

経路データ

SID SEASON NUMBER BASIN SUBBASIN NAME ISO_TIME NATURE LAT LON WMO_WIND WMO_PRES WMO_AGENCY TRACK_TYPE DIST2LAND LANDFALL IFLAG USA_AGENCY USA_ATCF_ID USA_LAT USA_LON USA_RECORD USA_STATUS USA_WIND USA_PRES USA_SSHS USA_R34_NE USA_R34_SE USA_R34_SW USA_R34_NW USA_R50_NE USA_R50_SE USA_R50_SW USA_R50_NW USA_R64_NE USA_R64_SE USA_R64_SW USA_R64_NW USA_POCI USA_ROCI USA_RMW USA_EYE TOKYO_LAT TOKYO_LON TOKYO_GRADE TOKYO_WIND TOKYO_PRES TOKYO_R50_DIR TOKYO_R50_LONG TOKYO_R50_SHORT TOKYO_R30_DIR TOKYO_R30_LONG TOKYO_R30_SHORT TOKYO_LAND CMA_LAT CMA_LON CMA_CAT CMA_WIND CMA_PRES HKO_LAT HKO_LON HKO_CAT HKO_WIND HKO_PRES NEWDELHI_LAT NEWDELHI_LON NEWDELHI_GRADE NEWDELHI_WIND NEWDELHI_PRES NEWDELHI_CI NEWDELHI_DP NEWDELHI_POCI REUNION_LAT REUNION_LON REUNION_TYPE REUNION_WIND REUNION_PRES REUNION_TNUM REUNION_CI REUNION_RMW REUNION_R34_NE REUNION_R34_SE REUNION_R34_SW REUNION_R34_NW REUNION_R50_NE REUNION_R50_SE REUNION_R50_SW REUNION_R50_NW REUNION_R64_NE REUNION_R64_SE REUNION_R64_SW REUNION_R64_NW BOM_LAT BOM_LON BOM_TYPE BOM_WIND BOM_PRES BOM_TNUM BOM_CI BOM_RMW BOM_R34_NE BOM_R34_SE BOM_R34_SW BOM_R34_NW BOM_R50_NE BOM_R50_SE BOM_R50_SW BOM_R50_NW BOM_R64_NE BOM_R64_SE BOM_R64_SW BOM_R64_NW BOM_ROCI BOM_POCI BOM_EYE BOM_POS_METHOD BOM_PRES_METHOD NADI_LAT NADI_LON NADI_CAT NADI_WIND NADI_PRES WELLINGTON_LAT WELLINGTON_LON WELLINGTON_WIND WELLINGTON_PRES DS824_LAT DS824_LON DS824_STAGE DS824_WIND DS824_PRES TD9636_LAT TD9636_LON TD9636_STAGE TD9636_WIND TD9636_PRES TD9635_LAT TD9635_LON TD9635_WIND TD9635_PRES TD9635_ROCI NEUMANN_LAT NEUMANN_LON NEUMANN_CLASS NEUMANN_WIND NEUMANN_PRES MLC_LAT MLC_LON MLC_CLASS MLC_WIND MLC_PRES USA_GUST BOM_GUST BOM_GUST_PER REUNION_GUST REUNION_GUST_PER USA_SEAHGT USA_SEARAD_NE USA_SEARAD_SE USA_SEARAD_SW USA_SEARAD_NW STORM_SPEED STORM_DIR
1947275N14155 1947 75 WP MM OLIVE 1947-10-02 06:00:00 TS 13.7000 155.400 main 1903 1903 O________O_O__ jtwc_wp WP151947 13.7000 155.400 45 0 13.7000 155.400 TC 45 13.7000 155.400 45 995 180 10 0
1947275N14155 1947 75 WP MM OLIVE 1947-10-02 09:00:00 TS 14.2176 155.390 main 1957 1957 P________P_P__ WP151947 14.2176 155.390 47 0 14.2176 155.390 TC 47 14.2176 155.390 47 994 240 10 1
1947275N14155 1947 75 WP MM OLIVE 1947-10-02 12:00:00 TS 14.7000 155.400 main 2011 2011 O________OOO__ jtwc_wp WP151947 14.7000 155.400 50 0 14.7000 155.400 TC 50 14.7000 155.400 2 50 14.7000 155.400 50 994 300 9 1
1947275N14155 1947 75 WP MM OLIVE 1947-10-02 15:00:00 TS 15.1186 155.393 main 2054 2054 P________PPP__ WP151947 15.1223 155.417 52 0 15.1223 155.417 TC 52 15.0962 155.244 2 47 15.1223 155.417 52 994 360 8 350
1947275N14155 1947 75 WP MM OLIVE 1947-10-02 18:00:00 TS 15.4968 155.250 main 2095 2093 O________OPO__ jtwc_wp WP151947 15.5000 155.300 55 0 15.5000 155.300 TC 55 15.4839 155.051 2 45 15.5000 155.300 55 994 420 9 328
1947275N14155 1947 75 WP MM OLIVE 1947-10-02 21:00:00 TS 15.8905 154.901 main 2129 2129 P________PPP__ WP151947 15.9024 154.940 47 0 15.9024 154.940 TC 47 15.8547 154.782 2 42 15.9024 154.940 47 993 420 11 311
1947275N14155 1947 75 WP MM OLIVE 1947-10-03 00:00:00 TS 16.2000 154.400 main 2151 2144 O________OOO__ jtwc_wp WP151947 16.2000 154.400 40 0 16.2000 154.400 TC 40 16.2000 154.400 2 40 16.2000 154.400 40 993 420 11 290
1947275N14155 1947 75 WP MM OLIVE 1947-10-03 03:00:00 TS 16.2676 153.793 main 2152 2146 P________PPP__ WP151947 16.1827 153.764 40 0 16.1827 153.764 TC 40 16.5224 153.883 2 40 16.1827 153.764 40 995 420 12 281
1947275N14155 1947 75 WP MM OLIVE 1947-10-03 06:00:00 TS 16.4429 153.143 main 2153 2153 O________OPO__ jtwc_wp WP151947 16.3000 153.100 40 0 16.3000 153.100 TC 40 16.8716 153.272 2 40 16.3000 153.100 40 997 420 14 303
1947275N14155 1947 75 WP MM OLIVE 1947-10-03 09:00:00 TS 17.0455 152.547 main 2211 2211 P________PPP__ WP151947 16.9574 152.520 40 0 16.9574 152.520 TC 40 17.3099 152.626 2 40 16.9574 152.520 40 993 420 18 323
1947275N14155 1947 75 WP MM OLIVE 1947-10-03 12:00:00 TS 17.9000 152.000 main 2243 2130 O________OOO__ jtwc_wp WP151947 17.9000 152.000 40 0 17.9000 152.000 TC 40 17.9000 152.000 2 40 17.9000 152.000 40 990 420 21 332
1947275N14155 1947 75 WP MM OLIVE 1947-10-03 15:00:00 TS 18.8573 151.520 main 2120 2012 P________PPP__ WP151947 18.8772 151.549 47 0 18.8772 151.549 TC 47 18.7978 151.434 2 45 18.8772 151.549 47 987 420 22 336
1947275N14155 1947 75 WP MM OLIVE 1947-10-03 18:00:00 TS 19.8838 151.050 main 2002 1874 O________OPO__ jtwc_wp WP151947 19.9000 151.100 55 0 19.9000 151.100 TC 55 19.8350 150.900 2 50 19.9000 151.100 55 984 420 23 335
1947275N14155 1947 75 WP MM OLIVE 1947-10-03 21:00:00 TS 20.9081 150.506 main 1874 1762 P________PPP__ WP151947 20.9176 150.536 57 0 20.9176 150.536 TC 57 20.8796 150.415 2 55 20.9176 150.536 57 980 390 22 333
1947275N14155 1947 75 WP MM OLIVE 1947-10-04 00:00:00 TS 21.8000 150.000 main 1762 1683 O________OOO__ jtwc_wp WP151947 21.8000 150.000 60 0 21.8000 150.000 TC 60 21.8000 150.000 2 60 21.8000 150.000 60 977 360 18 331
1947275N14155 1947 75 WP MM OLIVE 1947-10-04 03:00:00 TS 22.4357 149.604 main 1683 1619 P________PPP__ WP151947 22.4323 149.589 80 1 22.4323 149.589 TC 80 22.4461 149.647 2 70 22.4323 149.589 80 974 390 13 330
1947275N14155 1947 75 WP MM OLIVE 1947-10-04 06:00:00 TS 22.9128 149.317 main 1619 1570 O________OPO__ jtwc_wp WP151947 22.9000 149.300 100 3 22.9000 149.300 TC 100 22.9512 149.369 2 80 22.9000 149.300 100 972 420 10 334
1947275N14155 1947 75 WP MM OLIVE 1947-10-04 09:00:00 TS 23.3420 149.123 main 1570 1527 P________PPP__ WP151947 23.3374 149.112 100 3 23.3374 149.112 TC 100 23.3558 149.157 2 90 23.3374 149.112 100 969 420 8 340
1947275N14155 1947 75 WP MM OLIVE 1947-10-04 12:00:00 TS 23.7000 149.000 main 1527 1493 O________OOO__ jtwc_wp WP151947 23.7000 149.000 100 3 23.7000 149.000 TC 100 23.7000 149.000 3 100 23.7000 149.000 100 967 420 7 341
1947275N14155 1947 75 WP MM OLIVE 1947-10-04 15:00:00 TS 24.0187 148.874 main 1493 1459 P________PPP__ WP151947 24.0150 148.885 100 3 24.0150 148.885 TC 100 24.0297 148.842 3 102 24.0150 148.885 100 965 420 6 342
1947275N14155 1947 75 WP MM OLIVE 1947-10-04 18:00:00 TS 24.3037 148.784 main 1459 1426 O________OPO__ jtwc_wp WP151947 24.3000 148.800 100 3 24.3000 148.800 TC 100 24.3147 148.737 3 105 24.3000 148.800 100 963 420 6 346
1947275N14155 1947 75 WP MM OLIVE 1947-10-04 21:00:00 TS 24.5924 148.718 main 1426 1397 P________PPP__ WP151947 24.5925 148.728 105 3 24.5925 148.728 TC 105 24.5923 148.689 3 107 24.5925 148.728 105 960 390 6 353
1947275N14155 1947 75 WP MM OLIVE 1947-10-05 00:00:00 TS 24.9000 148.700 main 1397 1369 O________OOO__ jtwc_wp WP151947 24.9000 148.700 110 3 24.9000 148.700 TC 110 24.9000 148.700 4 110 24.9000 148.700 110 958 360 6 1
1947275N14155 1947 75 WP MM OLIVE 1947-10-05 03:00:00 TS 25.2315 148.727 main 1369 1338 P________PPP__ WP151947 25.2200 148.713 100 3 25.2200 148.713 TC 100 25.2662 148.770 4 102 25.2200 148.713 100 961 330 7 8
1947275N14155 1947 75 WP MM OLIVE 1947-10-05 06:00:00 TS 25.6166 148.817 main 1338 1307 O________OPO__ jtwc_wp WP151947 25.6000 148.800 90 2 25.6000 148.800 TC 90 25.6829 148.886 4 95 25.6000 148.800 90 964 300 8 12
1947275N14155 1947 75 WP MM OLIVE 1947-10-05 09:00:00 TS 26.0529 148.929 main 1298 1272 P________PPP__ WP151947 26.0396 148.911 85 2 26.0396 148.911 TC 85 26.1331 149.035 4 87 26.0396 148.911 85 967 390 10 19
1947275N14155 1947 75 WP MM OLIVE 1947-10-05 12:00:00 TS 26.6000 149.200 main 1272 1246 O________OOO__ jtwc_wp WP151947 26.6000 149.200 80 1 26.6000 149.200 TC 80 26.6000 149.200 4 80 26.6000 149.200 80 970 480 15 31
1947275N14155 1947 75 WP MM OLIVE 1947-10-05 15:00:00 TS 27.3087 149.764 main 1252 1238 P________P_P__ WP151947 27.3087 149.764 75 1 27.3087 149.764 TC 75 4 27.3087 149.764 75 972 540 19 38
1947275N14155 1947 75 WP MM OLIVE 1947-10-05 18:00:00 TS 28.1000 150.500 main 1238 O________O_O__ jtwc_wp WP151947 28.1000 150.500 70 1 28.1000 150.500 TC 70 4 28.1000 150.500 70 974 600 21 39

デジタル台風データ・検索

IBTrACS Databaseについて

本データベースは、米国NOAAが公開する1842年以降の世界の熱帯低気圧のベストトラックデータアーカイブInternational Best Track Archive for Climate Stewardship (IBTrACS)を、ウェブで閲覧しやすい形式に変換したものです。

最終更新日:2021-10-08